createdAt,value
2023-04-27T00:00:15.810Z,29.55
2023-04-27T00:01:15.826Z,29.85
2023-04-27T00:02:15.919Z,29.91
2023-04-27T00:03:16.081Z,29.82
2023-04-27T00:04:16.018Z,30.04
2023-04-27T00:05:16.176Z,29.86
2023-04-27T00:06:16.032Z,29.91
2023-04-27T00:07:15.973Z,29.86
2023-04-27T00:08:16.027Z,29.80
2023-04-27T00:09:16.337Z,29.99
2023-04-27T00:10:16.064Z,30.02
2023-04-27T00:11:16.074Z,29.98
2023-04-27T00:12:16.118Z,30.00
2023-04-27T00:13:16.156Z,29.82
2023-04-27T00:14:16.191Z,29.48
2023-04-27T00:15:16.198Z,29.81
2023-04-27T00:16:16.225Z,29.65
2023-04-27T00:17:16.202Z,29.93
2023-04-27T00:18:16.284Z,29.63
2023-04-27T00:19:16.323Z,29.78
2023-04-27T00:20:16.310Z,29.86
2023-04-27T00:21:16.339Z,29.78
2023-04-27T00:22:16.367Z,29.99
2023-04-27T00:23:16.372Z,30.12
2023-04-27T00:24:16.410Z,29.71
2023-04-27T00:25:16.410Z,29.52
2023-04-27T00:26:16.451Z,29.75
2023-04-27T00:27:16.485Z,29.76
2023-04-27T00:28:16.505Z,29.75
2023-04-27T00:29:16.537Z,29.65
2023-04-27T00:30:16.510Z,29.24
2023-04-27T00:31:16.564Z,29.67
2023-04-27T00:32:16.638Z,29.57
2023-04-27T00:33:16.616Z,29.87
2023-04-27T00:34:16.654Z,29.37
2023-04-27T00:35:16.630Z,29.51
2023-04-27T00:36:16.670Z,29.57
2023-04-27T00:37:16.707Z,29.44
2023-04-27T00:38:16.735Z,29.49
2023-04-27T00:39:16.723Z,29.18
2023-04-27T00:40:16.774Z,29.24
2023-04-27T00:41:16.784Z,29.33
2023-04-27T00:42:16.825Z,29.49
2023-04-27T00:43:16.832Z,29.12
2023-04-27T00:44:16.842Z,29.41
2023-04-27T00:45:16.898Z,29.42
2023-04-27T00:46:16.977Z,29.24
2023-04-27T00:47:16.977Z,29.47
2023-04-27T00:48:16.957Z,29.53
2023-04-27T00:49:16.993Z,29.74
2023-04-27T00:50:17.004Z,29.58
2023-04-27T00:51:17.039Z,29.53
2023-04-27T00:52:17.060Z,29.74
2023-04-27T00:53:17.046Z,30.10
2023-04-27T00:54:17.088Z,30.04
2023-04-27T00:55:17.091Z,29.63
2023-04-27T00:56:17.152Z,29.72
2023-04-27T00:57:17.191Z,29.45
2023-04-27T00:58:17.169Z,29.64
2023-04-27T00:59:17.216Z,29.85
2023-04-27T01:00:17.219Z,29.96
2023-04-27T01:01:17.245Z,30.06
2023-04-27T01:02:17.406Z,29.86
2023-04-27T01:03:17.411Z,29.72
2023-04-27T01:04:17.398Z,29.57
2023-04-27T01:05:17.344Z,29.42
2023-04-27T01:06:17.361Z,29.52
2023-04-27T01:07:17.391Z,29.54
2023-04-27T01:08:17.425Z,29.70
2023-04-27T01:09:17.481Z,29.48
2023-04-27T01:10:17.485Z,29.71
2023-04-27T01:11:17.513Z,29.26
2023-04-27T01:12:17.562Z,29.18
2023-04-27T01:13:17.553Z,29.48
2023-04-27T01:14:18.856Z,29.64
2023-04-27T01:15:17.594Z,29.51
2023-04-27T01:16:17.690Z,29.58
2023-04-27T01:17:17.716Z,29.43
2023-04-27T01:18:17.687Z,29.47
2023-04-27T01:19:17.710Z,29.51
2023-04-27T01:20:17.727Z,29.37
2023-04-27T01:21:17.759Z,29.61
2023-04-27T01:22:17.795Z,29.69
2023-04-27T01:23:17.842Z,29.63
2023-04-27T01:24:17.833Z,29.39
2023-04-27T01:25:17.864Z,29.57
2023-04-27T01:26:17.909Z,29.97
2023-04-27T01:27:17.916Z,29.79
2023-04-27T01:28:17.928Z,29.75
2023-04-27T01:29:17.949Z,29.71
2023-04-27T01:30:17.959Z,29.52
2023-04-27T01:31:18.072Z,29.48
2023-04-27T01:32:18.033Z,29.86
2023-04-27T01:33:18.063Z,29.64
2023-04-27T01:34:18.063Z,29.54
2023-04-27T01:35:18.123Z,29.27
2023-04-27T01:36:18.123Z,29.59
2023-04-27T01:37:18.171Z,29.90
2023-04-27T01:38:18.188Z,29.72
2023-04-27T01:39:18.233Z,29.46
2023-04-27T01:40:18.245Z,29.25
2023-04-27T01:41:18.255Z,29.71
2023-04-27T01:42:18.322Z,29.19
2023-04-27T01:43:18.322Z,29.35
2023-04-27T01:44:18.358Z,29.41
2023-04-27T01:45:18.383Z,29.29
2023-04-27T01:46:18.475Z,29.18
2023-04-27T01:47:18.420Z,28.67
2023-04-27T01:48:18.436Z,28.71
2023-04-27T01:49:18.490Z,28.88
2023-04-27T01:50:18.520Z,29.39
2023-04-27T01:51:18.579Z,29.68
2023-04-27T01:52:18.563Z,29.25
2023-04-27T01:53:18.565Z,29.70
2023-04-27T01:54:18.611Z,29.80
2023-04-27T01:55:18.668Z,29.91
2023-04-27T01:56:18.665Z,29.67
2023-04-27T01:57:18.736Z,29.75
2023-04-27T01:58:18.756Z,29.57
2023-04-27T01:59:18.765Z,29.39
2023-04-27T02:00:18.819Z,29.48
2023-04-27T02:01:18.840Z,29.54
2023-04-27T02:02:18.875Z,29.76
2023-04-27T02:03:18.988Z,29.65
2023-04-27T02:04:19.042Z,29.72
2023-04-27T02:05:18.914Z,29.53
2023-04-27T02:06:18.947Z,29.52
2023-04-27T02:07:18.973Z,29.45
2023-04-27T02:08:19.023Z,29.78
2023-04-27T02:09:19.032Z,29.57
2023-04-27T02:10:19.031Z,29.52
2023-04-27T02:11:19.052Z,29.75
2023-04-27T02:12:19.099Z,29.56
2023-04-27T02:13:19.147Z,29.47
2023-04-27T02:14:19.124Z,29.58
2023-04-27T02:15:19.178Z,29.98
2023-04-27T02:16:19.244Z,29.54
2023-04-27T02:17:19.228Z,29.70
2023-04-27T02:18:19.190Z,29.33
2023-04-27T02:19:19.237Z,29.50
2023-04-27T02:20:19.262Z,29.45
2023-04-27T02:21:19.278Z,29.75
2023-04-27T02:22:19.323Z,29.01
2023-04-27T02:23:19.329Z,29.04
2023-04-27T02:24:19.335Z,29.00
2023-04-27T02:25:19.338Z,29.04
2023-04-27T02:26:19.344Z,29.33
2023-04-27T02:27:19.402Z,29.16
2023-04-27T02:28:19.437Z,28.44
2023-04-27T02:29:19.409Z,28.33
2023-04-27T02:30:19.533Z,28.37
2023-04-27T02:31:19.429Z,28.38
2023-04-27T02:32:19.434Z,28.07
2023-04-27T02:33:19.435Z,28.09
2023-04-27T02:34:19.450Z,28.44
2023-04-27T02:35:19.448Z,28.03
2023-04-27T02:36:19.454Z,28.11
2023-04-27T02:37:19.456Z,27.99
2023-04-27T02:38:19.481Z,27.93
2023-04-27T02:39:19.836Z,28.21
2023-04-27T02:40:19.448Z,27.84
2023-04-27T02:41:19.447Z,27.85
2023-04-27T02:42:19.448Z,27.89
2023-04-27T02:43:19.459Z,27.87
2023-04-27T02:44:19.464Z,27.82
2023-04-27T02:45:19.468Z,28.36
2023-04-27T02:46:19.498Z,28.05
2023-04-27T02:47:19.480Z,27.86
2023-04-27T02:48:19.441Z,27.69
2023-04-27T02:49:19.438Z,28.26
2023-04-27T02:50:19.453Z,27.96
2023-04-27T02:51:19.468Z,27.69
2023-04-27T02:52:19.426Z,27.62
2023-04-27T02:53:19.425Z,27.60
2023-04-27T02:54:19.434Z,27.55
2023-04-27T02:55:19.435Z,27.56
2023-04-27T02:56:19.414Z,27.54
2023-04-27T02:57:20.027Z,28.27
2023-04-27T02:58:19.419Z,27.84
2023-04-27T02:59:19.443Z,27.90
2023-04-27T03:00:19.426Z,27.75
2023-04-27T03:01:19.493Z,27.62
2023-04-27T03:02:19.493Z,27.82
2023-04-27T03:03:19.583Z,27.67
2023-04-27T03:04:19.592Z,27.56
2023-04-27T03:05:19.426Z,27.80
2023-04-27T03:06:19.410Z,27.60
2023-04-27T03:07:19.404Z,27.70
2023-04-27T03:08:19.462Z,27.80
2023-04-27T03:09:19.400Z,27.69
2023-04-27T03:10:19.386Z,27.65
2023-04-27T03:11:19.452Z,27.63
2023-04-27T03:12:19.401Z,27.57
2023-04-27T03:13:19.438Z,27.82
2023-04-27T03:14:19.417Z,28.17
2023-04-27T03:15:19.430Z,27.70
2023-04-27T03:16:19.475Z,27.62
2023-04-27T03:17:19.410Z,27.56
2023-04-27T03:18:19.417Z,27.53
2023-04-27T03:19:19.426Z,27.48
2023-04-27T03:20:19.466Z,27.45
2023-04-27T03:21:19.493Z,27.45
2023-04-27T03:22:19.513Z,27.68
2023-04-27T03:23:19.532Z,27.71
2023-04-27T03:24:19.582Z,27.55
2023-04-27T03:25:19.567Z,27.55
2023-04-27T03:26:19.598Z,27.51
2023-04-27T03:27:19.808Z,27.48
2023-04-27T03:28:19.718Z,27.44
2023-04-27T03:29:19.696Z,27.42
2023-04-27T03:30:19.771Z,27.43
2023-04-27T03:31:19.821Z,27.41
2023-04-27T03:32:19.782Z,27.58
2023-04-27T03:33:19.825Z,27.42
2023-04-27T03:34:19.856Z,27.45
2023-04-27T03:35:19.866Z,27.42
2023-04-27T03:36:19.930Z,27.53
2023-04-27T03:37:19.935Z,27.46
2023-04-27T03:38:19.944Z,27.41
2023-04-27T03:39:20.014Z,27.39
2023-04-27T03:40:19.992Z,27.48
2023-04-27T03:41:20.051Z,27.43
2023-04-27T03:42:20.142Z,27.40
2023-04-27T03:43:20.108Z,27.45
2023-04-27T03:44:20.148Z,27.44
2023-04-27T03:45:20.187Z,27.39
2023-04-27T03:46:20.293Z,27.34
2023-04-27T03:47:20.344Z,27.37
2023-04-27T03:48:20.310Z,27.36
2023-04-27T03:49:20.372Z,27.38
2023-04-27T03:50:20.420Z,27.84
2023-04-27T03:51:20.426Z,27.57
2023-04-27T03:52:20.487Z,27.49
2023-04-27T03:53:20.502Z,27.44
2023-04-27T03:54:20.554Z,27.47
2023-04-27T03:55:20.555Z,27.47
2023-04-27T03:56:20.634Z,27.51
2023-04-27T03:57:20.614Z,27.63
2023-04-27T03:58:20.615Z,27.61
2023-04-27T03:59:20.693Z,28.08
2023-04-27T04:00:20.672Z,27.75
2023-04-27T04:01:20.670Z,27.67
2023-04-27T04:02:20.807Z,27.68
2023-04-27T04:03:20.960Z,27.69
2023-04-27T04:04:20.921Z,27.64
2023-04-27T04:05:20.898Z,27.65
2023-04-27T04:06:20.899Z,27.64
2023-04-27T04:07:20.883Z,27.62
2023-04-27T04:08:20.897Z,27.65
2023-04-27T04:09:22.701Z,27.68
2023-04-27T04:10:28.540Z,27.66
2023-04-27T04:11:20.942Z,27.71
2023-04-27T04:12:20.930Z,27.77
2023-04-27T04:13:20.949Z,27.77
2023-04-27T04:14:20.936Z,27.78
2023-04-27T04:15:20.911Z,27.75
2023-04-27T04:16:20.942Z,27.77
2023-04-27T04:17:20.876Z,27.75
2023-04-27T04:18:20.878Z,27.76
2023-04-27T04:19:22.146Z,27.75
2023-04-27T04:20:20.854Z,27.78
2023-04-27T04:21:20.908Z,27.86
2023-04-27T04:22:20.856Z,27.82
2023-04-27T04:23:20.809Z,27.84
2023-04-27T04:24:20.864Z,27.83
2023-04-27T04:25:20.813Z,27.84
2023-04-27T04:26:20.836Z,27.93
2023-04-27T04:27:20.826Z,27.89
2023-04-27T04:28:20.834Z,27.96
2023-04-27T04:29:20.781Z,27.91
2023-04-27T04:30:20.809Z,27.91
2023-04-27T04:31:20.944Z,27.91
2023-04-27T04:32:20.950Z,27.91
2023-04-27T04:33:21.025Z,27.92
2023-04-27T04:34:21.062Z,27.92
2023-04-27T04:35:21.134Z,27.97
2023-04-27T04:36:21.191Z,27.96
2023-04-27T04:37:21.253Z,27.98
2023-04-27T04:38:21.337Z,27.99
2023-04-27T04:39:21.429Z,27.99
2023-04-27T04:40:21.493Z,28.02
2023-04-27T04:41:21.492Z,28.05
2023-04-27T04:42:21.582Z,28.06
2023-04-27T04:43:21.667Z,28.18
2023-04-27T04:44:21.684Z,28.14
2023-04-27T04:45:21.745Z,28.12
2023-04-27T04:46:21.813Z,28.74
2023-04-27T04:47:21.890Z,28.56
2023-04-27T04:48:21.921Z,29.43
2023-04-27T04:49:21.948Z,28.93
2023-04-27T04:50:21.985Z,29.31
2023-04-27T04:51:22.013Z,29.00
2023-04-27T04:52:21.999Z,29.53
2023-04-27T04:53:22.025Z,29.88
2023-04-27T04:54:22.065Z,29.98
2023-04-27T04:55:22.047Z,30.45
2023-04-27T04:56:22.057Z,29.79
2023-04-27T04:57:22.085Z,30.42
2023-04-27T04:58:29.693Z,30.50
2023-04-27T04:59:22.014Z,30.60
2023-04-27T05:00:22.025Z,30.65
2023-04-27T05:02:41.185Z,31.21
2023-04-27T05:03:41.046Z,31.83
2023-04-27T05:04:41.034Z,32.25
2023-04-27T05:05:40.887Z,32.86
2023-04-27T05:06:40.898Z,33.62
2023-04-27T05:07:40.900Z,33.78
2023-04-27T05:08:41.820Z,34.15
2023-04-27T05:09:40.885Z,34.38
2023-04-27T05:10:40.905Z,34.52
2023-04-27T05:11:40.864Z,34.78
2023-04-27T05:12:40.844Z,34.92
2023-04-27T05:13:40.840Z,35.08
2023-04-27T05:14:40.847Z,35.24
2023-04-27T05:15:40.862Z,35.37
2023-04-27T05:16:40.986Z,35.26
2023-04-27T05:17:40.895Z,35.34
2023-04-27T05:18:40.799Z,35.23
2023-04-27T05:19:40.771Z,35.28
2023-04-27T05:20:40.783Z,35.25
2023-04-27T05:21:40.792Z,35.33
2023-04-27T05:22:40.803Z,35.25
2023-04-27T05:23:40.749Z,35.29
2023-04-27T05:24:40.765Z,35.41
2023-04-27T05:25:40.802Z,35.45
2023-04-27T05:26:40.745Z,35.46
2023-04-27T05:27:40.735Z,35.50
2023-04-27T05:28:40.738Z,35.71
2023-04-27T05:29:40.739Z,35.50
2023-04-27T05:30:40.743Z,35.37
2023-04-27T05:31:40.756Z,34.64
2023-04-27T05:32:41.106Z,34.69
2023-04-27T05:33:40.778Z,35.61
2023-04-27T05:34:40.706Z,35.88
2023-04-27T05:35:40.679Z,35.99
2023-04-27T05:36:40.683Z,36.15
2023-04-27T05:37:40.704Z,36.37
2023-04-27T05:38:40.749Z,36.23
2023-04-27T05:39:40.645Z,36.57
2023-04-27T05:40:40.673Z,36.53
2023-04-27T05:41:40.666Z,36.75
2023-04-27T05:42:41.157Z,36.89
2023-04-27T05:43:40.615Z,36.97
2023-04-27T05:44:40.654Z,37.07
2023-04-27T05:47:07.156Z,38.29
2023-04-27T05:48:00.786Z,38.45
2023-04-27T05:48:59.568Z,38.86
2023-04-27T05:49:59.560Z,39.03
2023-04-27T05:50:59.651Z,39.69
2023-04-27T05:51:59.546Z,39.75
2023-04-27T05:52:59.840Z,39.27
2023-04-27T05:53:59.553Z,39.04
2023-04-27T05:54:59.553Z,39.57
2023-04-27T05:55:59.905Z,39.74
2023-04-27T05:56:59.730Z,39.69
2023-04-27T05:58:07.714Z,39.74
2023-04-27T05:59:10.970Z,39.93
2023-04-27T06:00:00.494Z,39.87
2023-04-27T06:00:59.502Z,40.10
2023-04-27T06:01:59.491Z,40.18
2023-04-27T06:02:59.613Z,40.64
2023-04-27T06:03:59.533Z,40.62
2023-04-27T06:04:59.478Z,40.71
2023-04-27T06:05:59.470Z,40.83
2023-04-27T06:06:59.433Z,40.65
2023-04-27T06:07:59.841Z,40.69
2023-04-27T06:08:59.413Z,40.95
2023-04-27T06:09:59.443Z,41.31
2023-04-27T06:10:59.474Z,41.60
2023-04-27T06:11:59.414Z,41.99
2023-04-27T06:12:59.411Z,42.18
2023-04-27T06:13:59.849Z,42.30
2023-04-27T06:14:59.440Z,42.16
2023-04-27T06:15:59.414Z,42.11
2023-04-27T06:16:59.409Z,42.17
2023-04-27T06:17:59.361Z,42.79
2023-04-27T06:18:59.811Z,41.98
2023-04-27T06:19:59.381Z,41.70
2023-04-27T06:20:59.321Z,40.68
2023-04-27T06:21:59.327Z,40.13
2023-04-27T06:22:59.336Z,39.55
2023-04-27T06:23:59.346Z,38.96
2023-04-27T06:24:59.322Z,38.12
2023-04-27T06:25:59.278Z,38.05
2023-04-27T06:26:59.437Z,37.96
2023-04-27T06:27:59.348Z,37.51
2023-04-27T06:28:59.980Z,37.33
2023-04-27T06:29:59.354Z,37.15
2023-04-27T06:30:59.367Z,36.90
2023-04-27T06:31:59.494Z,36.78
2023-04-27T06:32:59.423Z,36.66
2023-04-27T06:33:59.895Z,36.46
2023-04-27T06:34:59.484Z,36.08
2023-04-27T06:35:59.463Z,35.93
2023-04-27T06:36:59.479Z,35.57
2023-04-27T06:37:59.626Z,35.37
2023-04-27T06:38:59.848Z,35.92
2023-04-27T06:39:59.553Z,37.08
2023-04-27T06:40:59.608Z,37.12
2023-04-27T06:42:00.205Z,36.83
2023-04-27T06:42:59.848Z,36.67
2023-04-27T06:43:59.867Z,36.95
2023-04-27T06:44:59.837Z,36.70
2023-04-27T06:46:00.942Z,36.22
2023-04-27T06:46:59.919Z,35.83
2023-04-27T06:47:59.966Z,35.58
2023-04-27T06:49:00.387Z,35.44
2023-04-27T06:50:00.055Z,35.44
2023-04-27T06:51:00.119Z,35.43
2023-04-27T06:52:00.219Z,35.36
2023-04-27T06:53:00.229Z,35.25
2023-04-27T06:54:00.761Z,35.24
2023-04-27T06:55:00.342Z,37.17
2023-04-27T06:56:00.410Z,35.31
2023-04-27T06:57:00.412Z,35.26
2023-04-27T06:58:00.574Z,35.18
2023-04-27T06:59:00.661Z,34.89
2023-04-27T07:00:00.650Z,34.91
2023-04-27T07:01:00.697Z,35.05
2023-04-27T07:02:01.091Z,35.04
2023-04-27T07:03:01.280Z,34.98
2023-04-27T07:04:01.039Z,35.04
2023-04-27T07:05:01.714Z,35.08
2023-04-27T07:06:01.702Z,34.98
2023-04-27T07:07:01.145Z,35.00
2023-04-27T07:08:04.559Z,34.46
2023-04-27T07:10:20.406Z,35.18
2023-04-27T07:11:19.965Z,34.98
2023-04-27T07:12:19.980Z,34.88
2023-04-27T07:13:20.181Z,35.07
2023-04-27T07:14:19.987Z,34.93
2023-04-27T07:15:20.343Z,34.72
2023-04-27T07:16:20.004Z,34.81
2023-04-27T07:17:20.045Z,34.69
2023-04-27T07:18:19.908Z,34.58
2023-04-27T07:19:19.915Z,34.61
2023-04-27T07:20:19.922Z,34.56
2023-04-27T07:21:19.868Z,34.64
2023-04-27T07:22:19.917Z,34.70
2023-04-27T07:23:19.896Z,34.71
2023-04-27T07:24:19.908Z,34.74
2023-04-27T07:25:19.857Z,34.57
2023-04-27T07:26:19.914Z,34.54
2023-04-27T07:27:19.877Z,34.52
2023-04-27T07:28:19.896Z,34.54
2023-04-27T07:29:27.140Z,34.84
2023-04-27T07:30:21.141Z,34.98
2023-04-27T07:31:19.857Z,35.19
2023-04-27T07:32:19.839Z,35.38
2023-04-27T07:33:19.814Z,35.34
2023-04-27T07:34:20.173Z,35.16
2023-04-27T07:35:19.815Z,35.72
2023-04-27T07:36:19.902Z,35.96
2023-04-27T07:37:20.079Z,35.90
2023-04-27T07:38:19.940Z,36.01
2023-04-27T07:39:20.207Z,35.87
2023-04-27T07:40:20.065Z,36.31
2023-04-27T07:41:20.091Z,36.41
2023-04-27T07:42:21.056Z,36.29
2023-04-27T07:43:20.232Z,35.95
2023-04-27T07:44:20.664Z,35.69
2023-04-27T07:45:20.173Z,35.55
2023-04-27T07:46:20.216Z,35.70
2023-04-27T07:47:20.277Z,36.24
2023-04-27T07:48:20.382Z,36.26
2023-04-27T07:49:20.688Z,35.96
2023-04-27T07:50:20.397Z,35.51
2023-04-27T07:51:20.460Z,35.31
2023-04-27T07:52:20.509Z,35.22
2023-04-27T07:53:20.506Z,35.09
2023-04-27T07:54:20.731Z,35.00
2023-04-27T07:55:20.638Z,34.81
2023-04-27T07:56:20.700Z,34.69
2023-04-27T07:57:20.746Z,34.70
2023-04-27T07:58:20.780Z,34.71
2023-04-27T07:59:20.850Z,34.35
2023-04-27T08:00:20.917Z,34.17
2023-04-27T08:01:21.483Z,34.34
2023-04-27T08:02:21.146Z,34.26
2023-04-27T08:03:21.132Z,34.19
2023-04-27T08:04:21.553Z,34.38
2023-04-27T08:05:21.496Z,34.38
2023-04-27T08:06:21.878Z,34.22
2023-04-27T08:07:21.707Z,34.26
2023-04-27T08:08:21.756Z,34.16
2023-04-27T08:09:21.333Z,34.18
2023-04-27T08:10:21.444Z,34.01
2023-04-27T08:11:21.422Z,33.98
2023-04-27T08:12:21.553Z,33.86
2023-04-27T08:13:22.441Z,34.02
2023-04-27T08:14:21.724Z,33.93
2023-04-27T08:15:21.719Z,33.78
2023-04-27T08:16:29.376Z,33.80
2023-04-27T08:17:21.725Z,33.88
2023-04-27T08:18:21.814Z,33.91
2023-04-27T08:19:21.750Z,33.89
2023-04-27T08:20:21.766Z,33.92
2023-04-27T08:21:21.712Z,33.87
2023-04-27T08:22:21.710Z,33.80
2023-04-27T08:23:21.689Z,33.90
2023-04-27T08:24:21.690Z,33.97
2023-04-27T08:25:21.696Z,33.92
2023-04-27T08:26:22.131Z,34.00
2023-04-27T08:27:22.122Z,33.98
2023-04-27T08:28:21.718Z,33.89
2023-04-27T08:29:27.789Z,33.74
2023-04-27T08:30:22.695Z,32.90
2023-04-27T08:31:21.664Z,32.45
2023-04-27T08:32:21.630Z,32.76
2023-04-27T08:33:21.645Z,32.53
2023-04-27T08:34:21.658Z,32.65
2023-04-27T08:35:21.694Z,32.84
2023-04-27T08:36:21.647Z,33.59
2023-04-27T08:37:21.673Z,33.39
2023-04-27T08:38:23.149Z,33.39
2023-04-27T08:39:21.601Z,33.53
2023-04-27T08:40:21.742Z,33.58
2023-04-27T08:41:22.403Z,33.49
2023-04-27T08:42:21.708Z,33.42
2023-04-27T08:43:21.574Z,33.42
2023-04-27T08:44:21.564Z,33.55
2023-04-27T08:45:21.577Z,33.77
2023-04-27T08:46:21.614Z,33.68
2023-04-27T08:47:28.301Z,33.73
2023-04-27T08:48:22.837Z,33.99
2023-04-27T08:49:21.868Z,34.11
2023-04-27T08:50:21.904Z,34.15
2023-04-27T08:51:21.569Z,34.39
2023-04-27T08:52:22.517Z,35.17
2023-04-27T08:53:21.797Z,35.30
2023-04-27T08:54:21.817Z,35.07
2023-04-27T08:55:21.803Z,35.04
2023-04-27T08:56:21.476Z,34.90
2023-04-27T08:57:21.438Z,34.62
2023-04-27T08:58:21.456Z,34.40
2023-04-27T08:59:21.396Z,34.48
2023-04-27T09:00:21.484Z,34.60
2023-04-27T09:01:21.422Z,34.89
2023-04-27T09:02:21.478Z,34.84
2023-04-27T09:03:21.615Z,34.56
2023-04-27T09:04:21.626Z,34.52
2023-04-27T09:05:21.651Z,34.45
2023-04-27T09:06:21.746Z,34.44
2023-04-27T09:07:32.318Z,34.22
2023-04-27T09:08:21.681Z,34.34
2023-04-27T09:09:21.637Z,34.30
2023-04-27T09:10:21.775Z,34.21
2023-04-27T09:11:22.615Z,34.26
2023-04-27T09:12:21.663Z,34.29
2023-04-27T09:13:21.646Z,34.27
2023-04-27T09:14:21.615Z,33.86
2023-04-27T09:15:21.734Z,34.07
2023-04-27T09:16:21.710Z,34.22
2023-04-27T09:17:21.674Z,34.19
2023-04-27T09:18:21.594Z,34.37
2023-04-27T09:19:21.599Z,34.17
2023-04-27T09:20:21.636Z,34.10
2023-04-27T09:21:21.610Z,34.18
2023-04-27T09:22:21.570Z,34.13
2023-04-27T09:23:21.634Z,34.15
2023-04-27T09:24:21.581Z,34.20
2023-04-27T09:25:21.697Z,34.16
2023-04-27T09:26:21.748Z,34.19
2023-04-27T09:27:21.766Z,34.24
2023-04-27T09:28:21.823Z,34.37
2023-04-27T09:29:21.811Z,34.18
2023-04-27T09:30:22.236Z,34.17
2023-04-27T09:31:21.948Z,34.32
2023-04-27T09:32:22.013Z,34.21
2023-04-27T09:33:22.105Z,34.13
2023-04-27T09:34:22.119Z,34.20
2023-04-27T09:35:22.161Z,34.52
2023-04-27T09:36:22.282Z,34.62
2023-04-27T09:37:22.338Z,34.29
2023-04-27T09:38:22.284Z,34.20
2023-04-27T09:39:22.399Z,34.07
2023-04-27T09:40:22.786Z,34.10
2023-04-27T09:41:22.415Z,34.21
2023-04-27T09:42:23.553Z,34.54
2023-04-27T09:43:22.529Z,34.29
2023-04-27T09:44:22.631Z,35.12
2023-04-27T09:45:22.888Z,35.20
2023-04-27T09:46:22.718Z,34.79
2023-04-27T09:47:22.675Z,34.53
2023-04-27T09:48:22.572Z,34.86
2023-04-27T09:49:22.673Z,34.89
2023-04-27T09:50:22.742Z,34.87
2023-04-27T09:51:22.781Z,34.79
2023-04-27T09:52:22.790Z,34.65
2023-04-27T09:53:22.979Z,34.68
2023-04-27T09:54:22.935Z,34.69
2023-04-27T09:55:22.894Z,34.58
2023-04-27T09:56:23.688Z,34.40
2023-04-27T09:57:23.262Z,34.24
2023-04-27T09:58:22.994Z,34.05
2023-04-27T09:59:23.047Z,33.85
2023-04-27T10:00:23.389Z,33.80
2023-04-27T10:01:23.449Z,34.02
2023-04-27T10:02:25.666Z,34.81
2023-04-27T10:03:23.138Z,35.30
2023-04-27T10:04:24.361Z,35.40
2023-04-27T10:05:23.135Z,35.66
2023-04-27T10:06:23.261Z,35.11
2023-04-27T10:07:23.152Z,34.47
2023-04-27T10:08:23.629Z,34.02
2023-04-27T10:09:23.072Z,33.87
2023-04-27T10:10:23.063Z,33.79
2023-04-27T10:11:23.079Z,33.86
2023-04-27T10:12:23.099Z,33.40
2023-04-27T10:13:23.043Z,33.19
2023-04-27T10:14:23.421Z,33.13
2023-04-27T10:15:23.030Z,33.52
2023-04-27T10:16:23.152Z,33.83
2023-04-27T10:17:23.094Z,32.98
2023-04-27T10:18:23.076Z,33.42
2023-04-27T10:19:23.362Z,33.20
2023-04-27T10:20:23.268Z,33.48
2023-04-27T10:21:23.330Z,33.34
2023-04-27T10:22:23.895Z,33.40
2023-04-27T10:23:23.033Z,34.29
2023-04-27T10:24:22.920Z,34.85
2023-04-27T10:25:22.928Z,34.77
2023-04-27T10:26:23.346Z,34.27
2023-04-27T10:27:22.944Z,34.75
2023-04-27T10:28:23.069Z,34.61
2023-04-27T10:29:22.956Z,34.42
2023-04-27T10:30:23.382Z,34.78
2023-04-27T10:31:23.001Z,35.06
2023-04-27T10:32:22.938Z,34.99
2023-04-27T10:33:23.329Z,35.02
2023-04-27T10:34:23.378Z,34.85
2023-04-27T10:35:23.050Z,34.58
2023-04-27T10:36:23.370Z,34.17
2023-04-27T10:37:23.427Z,34.53
2023-04-27T10:38:23.197Z,34.92
2023-04-27T10:39:32.671Z,35.08
2023-04-27T10:40:24.365Z,34.89
2023-04-27T10:41:23.267Z,35.42
2023-04-27T10:42:23.053Z,36.50
2023-04-27T10:43:23.061Z,35.32
2023-04-27T10:44:23.067Z,35.17
2023-04-27T10:45:23.091Z,34.13
2023-04-27T10:46:23.326Z,34.37
2023-04-27T10:47:23.055Z,34.63
2023-04-27T10:48:23.045Z,35.14
2023-04-27T10:49:23.024Z,35.20
2023-04-27T10:50:23.433Z,35.01
2023-04-27T10:51:23.012Z,35.28
2023-04-27T10:52:22.976Z,35.25
2023-04-27T10:53:23.000Z,35.35
2023-04-27T10:54:23.961Z,36.10
2023-04-27T10:55:23.082Z,35.50
2023-04-27T10:56:23.114Z,35.63
2023-04-27T10:57:23.505Z,35.28
2023-04-27T10:58:23.521Z,35.60
2023-04-27T10:59:23.150Z,35.11
2023-04-27T11:00:23.835Z,35.43
2023-04-27T11:01:24.198Z,35.70
2023-04-27T11:02:23.348Z,35.71
2023-04-27T11:03:23.443Z,35.52
2023-04-27T11:04:23.415Z,35.52
2023-04-27T11:05:23.442Z,35.73
2023-04-27T11:06:23.437Z,36.08
2023-04-27T11:07:23.458Z,35.28
2023-04-27T11:08:23.568Z,34.83
2023-04-27T11:09:23.556Z,34.42
2023-04-27T11:10:23.586Z,34.72
2023-04-27T11:11:23.975Z,35.26
2023-04-27T11:12:23.759Z,35.31
2023-04-27T11:13:23.768Z,35.39
2023-04-27T11:14:23.796Z,35.53
2023-04-27T11:15:24.122Z,35.87
2023-04-27T11:16:23.977Z,35.13
2023-04-27T11:17:23.871Z,34.90
2023-04-27T11:18:23.956Z,34.36
2023-04-27T11:19:24.758Z,34.36
2023-04-27T11:20:23.992Z,35.17
2023-04-27T11:21:24.292Z,35.53
2023-04-27T11:22:24.055Z,35.63
2023-04-27T11:23:24.070Z,35.84
2023-04-27T11:24:24.094Z,35.65
2023-04-27T11:25:24.171Z,35.68
2023-04-27T11:26:24.221Z,35.56
2023-04-27T11:27:24.255Z,34.52
2023-04-27T11:28:24.679Z,34.55
2023-04-27T11:29:24.309Z,34.62
2023-04-27T11:30:24.372Z,34.92
2023-04-27T11:31:24.842Z,35.26
2023-04-27T11:32:24.428Z,35.82
2023-04-27T11:33:24.664Z,35.71
2023-04-27T11:34:25.170Z,35.18
2023-04-27T11:35:25.209Z,35.51
2023-04-27T11:36:24.817Z,35.08
2023-04-27T11:37:24.355Z,35.05
2023-04-27T11:38:24.411Z,34.43
2023-04-27T11:39:24.488Z,34.02
2023-04-27T11:40:24.718Z,34.06
2023-04-27T11:41:24.857Z,34.28
2023-04-27T11:42:24.784Z,34.99
2023-04-27T11:43:24.558Z,34.83
2023-04-27T11:44:24.474Z,34.71
2023-04-27T11:45:24.433Z,34.91
2023-04-27T11:46:24.858Z,35.20
2023-04-27T11:47:24.436Z,35.26
2023-04-27T11:48:24.497Z,34.63
2023-04-27T11:49:24.451Z,34.54
2023-04-27T11:50:24.455Z,34.64
2023-04-27T11:51:24.473Z,34.77
2023-04-27T11:52:24.482Z,34.85
2023-04-27T11:53:24.523Z,34.43
2023-04-27T11:54:24.489Z,34.25
2023-04-27T11:55:25.862Z,34.29
2023-04-27T11:56:24.605Z,34.12
2023-04-27T11:57:24.670Z,34.65
2023-04-27T11:58:24.611Z,34.86
2023-04-27T11:59:24.620Z,34.63
2023-04-27T12:00:24.706Z,34.63
2023-04-27T12:01:34.780Z,34.67
2023-04-27T12:02:26.134Z,34.52
2023-04-27T12:03:24.888Z,34.87
2023-04-27T12:04:24.723Z,34.75
2023-04-27T12:05:24.687Z,34.76
2023-04-27T12:06:32.710Z,34.16
2023-04-27T12:07:25.644Z,34.33
2023-04-27T12:08:24.639Z,35.00
2023-04-27T12:09:24.961Z,34.46
2023-04-27T12:10:24.630Z,34.15
2023-04-27T12:11:24.635Z,33.68
2023-04-27T12:12:24.912Z,34.02
2023-04-27T12:13:24.579Z,33.98
2023-04-27T12:14:24.585Z,34.19
2023-04-27T12:15:24.594Z,33.87
2023-04-27T12:16:24.601Z,33.74
2023-04-27T12:17:24.955Z,33.77
2023-04-27T12:18:24.546Z,34.29
2023-04-27T12:19:25.537Z,34.58
2023-04-27T12:20:24.893Z,34.20
2023-04-27T12:21:24.530Z,34.04
2023-04-27T12:22:24.891Z,33.77
2023-04-27T12:23:24.900Z,33.48
2023-04-27T12:24:24.552Z,33.54
2023-04-27T12:25:24.531Z,33.56
2023-04-27T12:26:24.521Z,33.64
2023-04-27T12:27:24.522Z,34.40
2023-04-27T12:28:25.294Z,34.09
2023-04-27T12:29:24.473Z,33.85
2023-04-27T12:30:24.488Z,33.88
2023-04-27T12:31:26.815Z,33.25
2023-04-27T12:32:24.516Z,33.92
2023-04-27T12:33:24.836Z,34.11
2023-04-27T12:34:24.494Z,34.17
2023-04-27T12:35:24.508Z,34.44
2023-04-27T12:36:24.515Z,33.62
2023-04-27T12:37:26.835Z,33.52
2023-04-27T12:38:24.468Z,33.81
2023-04-27T12:39:24.440Z,33.87
2023-04-27T12:40:24.451Z,34.04
2023-04-27T12:41:24.452Z,33.99
2023-04-27T12:42:24.797Z,34.23
2023-04-27T12:43:24.445Z,34.74
2023-04-27T12:44:24.433Z,34.79
2023-04-27T12:45:24.417Z,34.41
2023-04-27T12:46:24.436Z,34.38
2023-04-27T12:48:24.449Z,34.71
2023-04-27T12:49:24.376Z,34.44
2023-04-27T12:50:24.450Z,34.49
2023-04-27T12:51:24.421Z,34.71
2023-04-27T12:52:24.407Z,35.77
2023-04-27T12:53:24.411Z,35.14
2023-04-27T12:54:24.356Z,34.68
2023-04-27T12:55:33.007Z,34.78
2023-04-27T12:56:25.419Z,34.81
2023-04-27T12:57:24.394Z,35.17